42分钟前
罗盘
风向 的 风向 310° 渥太华麦克唐纳-卡蒂埃国际机场 14/32
风: 17 千吨, 5 beaufort
0 0 0.17778093859221 500 0.32299085377319 1.500 0.47075341907445 3.000 0.62138884920159 5.000 0.8022287624727 8.000 0.90566318494517 10.000
BKN 1.500 ft
BKN 2.500 ft
METAR CYOW 221008Z 31017KT 15SM BKN015 BKN025 06/04 A2973 RMK SC7SC1 PRESRR SLP071

METAR定义 | 嵌入

24小时趋势

航班类别VFRLIFR
温度16 °C6 °C
风速20 千吨0 千吨
能见度24 公里0 米

更多历史数据

下载我们的安卓应用程序

从你的主屏幕上轻松地访问你的航空天气。
只需一次付费,您就可以获得无广告的体验。

您会帮助我们保持Metar-Taf.com正常运行吗?
您的贡献有助于网站的进一步开发并支付费用。

没有更多广告

您是捐款5美元还是更多?然后,我们将永远不会再向您展示广告,这是我们永恒的感谢!
捐赠前先登录

METAR 渥太华麦克唐纳-卡蒂埃国际机场

渥太华麦克唐纳-卡蒂埃国际机场是Ottawa,加拿大中的大型机场。 机场有{a,plural,=1{一条跑道} other{#跑道}}: 4/22, 7/25 和 14/32

该报告是针对2021年10月22日 06:08, 当地时间上的渥太华麦克唐纳-卡蒂埃国际机场所做的。

机场观察

风来自北西 (310°)方向,速度为17 千吨。

可见度为24 公里。

有碎云在1.500 ft的高度 和 碎云在2.500 ft的高度。 破损或更高的上限为1.500 ft。

温度为6 °C,阵风为-1 °C。 露点为4 °C,相对湿度为87%。 海平面上的气压为1007 压力 (QNH)。

评论

  • 气压迅速上升 (PRESRR)
  • 海平面压力为1007,1 压力 (SLP071)
  • SC7SC1

白天

今天,太阳从07:28升起,在18:05降落。 这适用于渥太华麦克唐纳-卡蒂埃国际机场,世界夏令时可能有所不同。 当地时间与世界标准时间之间的时差为-4 小时。 夏令时目前正在进行中。

公司介绍

在这个机场,你可以找到飞行学校。 本场上唯一已知的公司是Ottawa Flying Club。

体会

到Vliegles.nl去找飞行课程,跳伞和其他飞行体验。 浏览页面,了解渥太华麦克唐纳-卡蒂埃国际机场附近所有可用的活动。 你也可以使用搜索功能来寻找你所在地附近的特定飞行课程、跳伞或其他飞行体验。

您是否要在网站上渥太华麦克唐纳-卡蒂埃国际机场飞行的天气? 阅读更多   自由!